createdAt,value
2019-02-27T00:02:24.173Z,19.00
2019-02-27T00:05:41.831Z,15.23
2019-02-27T00:09:00.523Z,18.27
2019-02-27T00:12:19.375Z,14.93
2019-02-27T00:15:37.977Z,14.20
2019-02-27T00:18:58.634Z,16.03
2019-02-27T00:22:14.912Z,15.67
2019-02-27T00:25:35.925Z,18.20
2019-02-27T00:28:50.323Z,14.37
2019-02-27T00:32:07.570Z,16.77
2019-02-27T00:35:24.975Z,16.93
2019-02-27T00:38:41.656Z,15.30
2019-02-27T00:41:58.522Z,15.70
2019-02-27T00:45:15.482Z,15.77
2019-02-27T00:48:32.495Z,18.30
2019-02-27T00:51:49.386Z,13.83
2019-02-27T00:55:06.300Z,15.80
2019-02-27T00:58:26.850Z,14.47
2019-02-27T01:01:42.110Z,16.70
2019-02-27T01:04:58.996Z,15.13
2019-02-27T01:08:15.674Z,17.10
2019-02-27T01:11:32.820Z,16.27
2019-02-27T01:14:49.372Z,17.10
2019-02-27T01:18:06.664Z,17.63
2019-02-27T01:21:23.428Z,19.87
2019-02-27T01:24:39.991Z,17.33
2019-02-27T01:27:56.442Z,17.70
2019-02-27T01:31:12.962Z,15.63
2019-02-27T01:34:30.215Z,17.97
2019-02-27T01:37:46.842Z,17.20
2019-02-27T01:41:03.612Z,17.30
2019-02-27T01:44:20.124Z,18.80
2019-02-27T01:47:36.895Z,18.70
2019-02-27T01:50:55.310Z,15.97
2019-02-27T01:54:14.806Z,16.70
2019-02-27T01:57:30.686Z,16.20
2019-02-27T02:00:47.210Z,17.73
2019-02-27T02:04:04.054Z,17.47
2019-02-27T02:07:21.172Z,13.03
2019-02-27T02:10:38.302Z,15.03
2019-02-27T02:13:55.218Z,16.50
2019-02-27T02:17:12.121Z,14.93
2019-02-27T02:20:28.650Z,16.27
2019-02-27T02:23:47.935Z,15.07
2019-02-27T02:27:07.764Z,17.37
2019-02-27T02:30:29.420Z,17.20
2019-02-27T02:33:41.942Z,15.63
2019-02-27T02:37:02.515Z,17.67
2019-02-27T02:40:17.520Z,20.50
2019-02-27T02:43:40.143Z,15.80
2019-02-27T02:46:52.995Z,15.43
2019-02-27T02:50:09.665Z,16.80
2019-02-27T02:53:26.536Z,23.97
2019-02-27T02:56:43.488Z,16.90
2019-02-27T03:00:01.180Z,14.10
2019-02-27T03:03:38.966Z,13.50
2019-02-27T03:07:22.320Z,15.30
2019-02-27T03:11:02.676Z,14.33
2019-02-27T03:14:19.891Z,19.60
2019-02-27T03:17:36.657Z,17.80
2019-02-27T03:20:53.792Z,18.57
2019-02-27T03:24:10.476Z,15.97
2019-02-27T03:27:30.646Z,17.30
2019-02-27T03:30:45.884Z,13.60
2019-02-27T03:34:08.138Z,15.93
2019-02-27T03:37:22.181Z,19.80
2019-02-27T03:40:39.164Z,15.10
2019-02-27T03:43:55.680Z,17.77
2019-02-27T03:47:18.095Z,14.60
2019-02-27T03:51:01.500Z,15.93
2019-02-27T03:54:21.303Z,15.87
2019-02-27T03:57:36.635Z,15.93
2019-02-27T04:00:54.146Z,19.00
2019-02-27T04:04:11.671Z,18.03
2019-02-27T04:07:31.796Z,18.40
2019-02-27T04:10:47.415Z,15.03
2019-02-27T04:14:05.575Z,16.60
2019-02-27T04:17:27.268Z,16.27
2019-02-27T04:20:49.698Z,18.40
2019-02-27T04:24:02.670Z,19.73
2019-02-27T04:27:21.205Z,16.77
2019-02-27T04:30:38.171Z,17.30
2019-02-27T04:33:59.524Z,15.67
2019-02-27T04:37:17.756Z,17.57
2019-02-27T04:40:34.091Z,17.00
2019-02-27T04:43:50.768Z,14.53
2019-02-27T04:47:06.074Z,15.10
2019-02-27T04:50:30.239Z,16.50
2019-02-27T04:53:46.719Z,16.20
2019-02-27T04:57:03.934Z,19.77
2019-02-27T05:00:20.736Z,26.60
2019-02-27T05:03:37.458Z,21.33
2019-02-27T05:06:54.164Z,19.17
2019-02-27T05:10:10.799Z,16.40
2019-02-27T05:13:27.319Z,17.13
2019-02-27T05:16:46.972Z,15.97
2019-02-27T05:20:03.084Z,14.77
2019-02-27T05:23:19.648Z,13.93
2019-02-27T05:26:36.316Z,15.00
2019-02-27T05:29:53.110Z,18.80
2019-02-27T05:33:10.440Z,15.13
2019-02-27T05:36:29.030Z,13.90
2019-02-27T05:39:46.146Z,13.97
2019-02-27T05:43:03.462Z,16.00
2019-02-27T05:46:20.347Z,19.43
2019-02-27T05:49:37.194Z,18.00
2019-02-27T05:52:54.161Z,16.70
2019-02-27T05:56:15.569Z,19.33
2019-02-27T05:59:30.023Z,16.93
2019-02-27T06:02:47.189Z,18.63
2019-02-27T06:06:04.475Z,18.40
2019-02-27T06:09:21.799Z,19.47
2019-02-27T06:12:40.744Z,14.93
2019-02-27T06:15:57.000Z,18.13
2019-02-27T06:19:13.487Z,21.40
2019-02-27T06:22:31.018Z,17.43
2019-02-27T06:25:47.953Z,18.80
2019-02-27T06:29:04.875Z,16.20
2019-02-27T06:32:21.643Z,23.17
2019-02-27T06:35:38.557Z,17.00
2019-02-27T06:39:00.138Z,19.30
2019-02-27T06:42:14.069Z,18.90
2019-02-27T06:45:29.504Z,17.23
2019-02-27T06:48:53.666Z,17.23
2019-02-27T06:52:10.219Z,17.40
2019-02-27T06:55:28.038Z,21.33
2019-02-27T06:58:47.589Z,21.27
2019-02-27T07:02:04.121Z,20.00
2019-02-27T07:05:21.388Z,19.17
2019-02-27T07:08:38.721Z,18.90
2019-02-27T07:11:55.498Z,19.63
2019-02-27T07:15:12.910Z,20.10
2019-02-27T07:18:30.283Z,16.07
2019-02-27T07:21:47.179Z,16.63
2019-02-27T07:25:06.359Z,18.40
2019-02-27T07:28:22.007Z,16.57
2019-02-27T07:31:39.107Z,18.23
2019-02-27T07:34:56.246Z,16.80
2019-02-27T07:38:12.719Z,16.97
2019-02-27T07:41:29.463Z,19.80
2019-02-27T07:44:46.112Z,23.13
2019-02-27T07:48:03.000Z,22.47
2019-02-27T07:51:20.832Z,20.57
2019-02-27T07:54:38.455Z,25.37
2019-02-27T07:57:58.394Z,21.80
2019-02-27T08:01:23.215Z,20.80
2019-02-27T08:04:57.175Z,23.53
2019-02-27T08:08:13.803Z,23.73
2019-02-27T08:11:30.565Z,21.60
2019-02-27T08:14:47.671Z,22.10
2019-02-27T08:18:04.790Z,19.70
2019-02-27T08:21:21.391Z,22.37
2019-02-27T08:24:38.284Z,18.10
2019-02-27T08:27:55.119Z,16.17
2019-02-27T08:31:11.646Z,24.53
2019-02-27T08:34:29.146Z,21.77
2019-02-27T08:37:45.810Z,22.03
2019-02-27T08:41:02.598Z,21.40
2019-02-27T08:44:19.354Z,15.47
2019-02-27T08:47:36.332Z,18.33
2019-02-27T08:50:52.707Z,21.23
2019-02-27T08:54:09.702Z,17.23
2019-02-27T08:57:26.470Z,18.37
2019-02-27T09:00:47.091Z,19.20
2019-02-27T09:04:00.223Z,19.00
2019-02-27T09:07:24.451Z,19.53
2019-02-27T09:10:41.651Z,20.60
2019-02-27T09:13:58.471Z,19.47
2019-02-27T09:17:15.071Z,20.80
2019-02-27T09:20:31.835Z,21.30
2019-02-27T09:23:48.549Z,19.87
2019-02-27T09:27:05.294Z,17.33
2019-02-27T09:30:22.391Z,19.83
2019-02-27T09:33:39.820Z,19.20
2019-02-27T09:36:56.999Z,19.17
2019-02-27T09:40:14.219Z,17.60
2019-02-27T09:43:32.332Z,19.50
2019-02-27T09:46:49.946Z,26.23
2019-02-27T09:50:07.155Z,25.30
2019-02-27T09:53:24.099Z,21.07
2019-02-27T09:56:40.664Z,17.50
2019-02-27T09:59:57.411Z,21.00
2019-02-27T10:03:14.161Z,21.57
2019-02-27T10:06:31.031Z,19.70
2019-02-27T10:09:47.590Z,22.07
2019-02-27T10:13:04.730Z,22.20
2019-02-27T10:16:21.425Z,24.33
2019-02-27T10:19:38.307Z,18.77
2019-02-27T10:22:55.649Z,19.10
2019-02-27T10:26:12.611Z,21.33
2019-02-27T10:29:29.131Z,24.60
2019-02-27T10:32:45.885Z,23.57
2019-02-27T10:36:03.803Z,19.57
2019-02-27T10:39:20.786Z,15.10
2019-02-27T10:42:37.599Z,23.63
2019-02-27T10:45:54.854Z,16.37
2019-02-27T10:49:11.680Z,15.00
2019-02-27T10:52:28.977Z,18.80
2019-02-27T10:55:46.454Z,17.30
2019-02-27T10:59:04.488Z,19.10
2019-02-27T11:02:20.975Z,15.43
2019-02-27T11:05:36.327Z,17.03
2019-02-27T11:08:53.654Z,14.83
2019-02-27T11:12:11.002Z,18.83
2019-02-27T11:15:28.137Z,17.00
2019-02-27T11:18:44.552Z,19.47
2019-02-27T11:22:01.062Z,15.30
2019-02-27T11:25:22.325Z,15.50
2019-02-27T11:28:36.580Z,14.20
2019-02-27T11:31:53.540Z,14.87
2019-02-27T11:35:10.303Z,13.20
2019-02-27T11:38:27.302Z,11.97
2019-02-27T11:41:46.075Z,15.90
2019-02-27T11:45:02.615Z,13.07
2019-02-27T11:48:20.376Z,13.80
2019-02-27T11:51:37.890Z,15.53
2019-02-27T11:54:54.415Z,10.23
2019-02-27T11:58:11.625Z,10.47
2019-02-27T12:01:28.635Z,17.60
2019-02-27T12:04:45.455Z,7.30
2019-02-27T12:08:02.302Z,12.03
2019-02-27T12:11:19.274Z,13.83
2019-02-27T12:14:35.924Z,13.00
2019-02-27T12:17:52.911Z,9.67
2019-02-27T12:21:09.459Z,8.80
2019-02-27T12:24:25.968Z,11.60
2019-02-27T12:27:49.112Z,14.23
2019-02-27T12:31:01.115Z,15.67
2019-02-27T12:34:17.851Z,11.43
2019-02-27T12:37:34.937Z,10.37
2019-02-27T12:40:51.479Z,9.90
2019-02-27T12:44:08.158Z,13.30
2019-02-27T12:47:24.682Z,12.50
2019-02-27T12:50:41.579Z,10.67
2019-02-27T12:53:58.427Z,10.90
2019-02-27T12:57:17.641Z,10.33
2019-02-27T13:00:34.343Z,10.43
2019-02-27T13:03:51.034Z,13.13
2019-02-27T13:07:10.292Z,32.50
2019-02-27T13:10:25.779Z,11.33
2019-02-27T13:13:42.612Z,9.47
2019-02-27T13:16:59.551Z,10.97
2019-02-27T13:20:16.287Z,8.07
2019-02-27T13:23:32.998Z,7.20
2019-02-27T13:26:50.003Z,7.50
2019-02-27T13:30:09.179Z,6.27
2019-02-27T13:33:24.839Z,7.90
2019-02-27T13:36:42.007Z,8.73
2019-02-27T13:40:00.476Z,8.23
2019-02-27T13:43:16.885Z,8.80
2019-02-27T13:46:32.135Z,8.50
2019-02-27T13:49:58.445Z,10.60
2019-02-27T13:53:14.816Z,9.27
2019-02-27T13:56:31.751Z,12.70
2019-02-27T13:59:49.696Z,9.80
2019-02-27T14:03:06.208Z,11.50
2019-02-27T14:06:23.127Z,8.33
2019-02-27T14:09:41.518Z,8.70
2019-02-27T14:12:58.779Z,7.93
2019-02-27T14:16:15.369Z,8.00
2019-02-27T14:19:31.910Z,6.63
2019-02-27T14:22:48.512Z,7.73
2019-02-27T14:26:06.757Z,10.90
2019-02-27T14:29:26.042Z,12.13
2019-02-27T14:32:41.698Z,7.77
2019-02-27T14:35:58.410Z,8.70
2019-02-27T14:39:15.529Z,7.07
2019-02-27T14:42:32.160Z,8.90
2019-02-27T14:45:50.644Z,7.23
2019-02-27T14:49:07.526Z,8.77
2019-02-27T14:52:24.194Z,8.40
2019-02-27T14:55:41.850Z,9.07
2019-02-27T14:58:59.179Z,7.83
2019-02-27T15:02:16.050Z,10.27
2019-02-27T15:05:32.484Z,8.67
2019-02-27T15:08:57.706Z,8.70
2019-02-27T15:12:08.070Z,9.40
2019-02-27T15:15:24.990Z,8.60
2019-02-27T15:18:42.142Z,8.70
2019-02-27T15:21:58.971Z,8.30
2019-02-27T15:25:15.579Z,8.37
2019-02-27T15:28:33.363Z,9.60
2019-02-27T15:31:52.275Z,7.90
2019-02-27T15:35:08.985Z,12.50
2019-02-27T15:38:25.615Z,9.10
2019-02-27T15:41:42.442Z,9.17
2019-02-27T15:44:59.054Z,9.43
2019-02-27T15:48:15.834Z,9.80
2019-02-27T15:51:33.246Z,8.30
2019-02-27T15:54:50.123Z,8.00
2019-02-27T15:58:06.727Z,9.50
2019-02-27T16:01:24.743Z,16.17
2019-02-27T16:04:41.639Z,10.40
2019-02-27T16:07:58.569Z,10.90
2019-02-27T16:11:16.598Z,11.50
2019-02-27T16:14:34.227Z,10.80
2019-02-27T16:17:50.679Z,10.27
2019-02-27T16:21:07.230Z,11.20
2019-02-27T16:24:24.184Z,10.80
2019-02-27T16:27:41.431Z,8.30
2019-02-27T16:30:58.065Z,10.50
2019-02-27T16:34:14.838Z,9.33
2019-02-27T16:37:31.852Z,11.07
2019-02-27T16:40:52.024Z,13.50
2019-02-27T16:44:07.073Z,24.73
2019-02-27T16:47:23.962Z,13.23
2019-02-27T16:50:40.527Z,13.30
2019-02-27T16:53:57.866Z,13.57
2019-02-27T16:57:14.932Z,11.50
2019-02-27T17:00:31.848Z,14.50
2019-02-27T17:03:59.442Z,10.17
2019-02-27T17:07:06.885Z,12.93
2019-02-27T17:10:23.509Z,12.80
2019-02-27T17:13:40.274Z,13.90
2019-02-27T17:16:57.574Z,14.63
2019-02-27T17:20:14.140Z,15.23
2019-02-27T17:23:30.896Z,13.33
2019-02-27T17:26:47.467Z,15.43
2019-02-27T17:30:03.949Z,16.50
2019-02-27T17:33:20.606Z,18.40
2019-02-27T17:36:35.915Z,15.83
2019-02-27T17:40:02.250Z,23.83
2019-02-27T17:43:38.262Z,24.17
2019-02-27T17:46:55.630Z,19.17
2019-02-27T17:50:12.847Z,19.50
2019-02-27T17:53:29.355Z,16.97
2019-02-27T17:56:47.137Z,18.93
2019-02-27T18:00:03.695Z,18.90
2019-02-27T18:03:27.848Z,18.33
2019-02-27T18:06:44.873Z,20.70
2019-02-27T18:10:02.418Z,18.60
2019-02-27T18:13:19.732Z,30.70
2019-02-27T18:16:37.091Z,27.07
2019-02-27T18:19:54.175Z,18.70
2019-02-27T18:23:11.420Z,17.73
2019-02-27T18:26:28.689Z,18.50
2019-02-27T18:29:45.213Z,14.60
2019-02-27T18:33:02.301Z,19.40
2019-02-27T18:40:16.258Z,18.30
2019-02-27T18:43:33.296Z,16.80
2019-02-27T18:46:50.017Z,25.80
2019-02-27T18:50:07.220Z,22.07
2019-02-27T18:53:23.953Z,19.87
2019-02-27T18:56:41.430Z,21.00
2019-02-27T19:00:01.471Z,20.10
2019-02-27T19:03:18.199Z,18.17
2019-02-27T19:06:35.396Z,19.17
2019-02-27T19:09:52.405Z,20.47
2019-02-27T19:13:09.722Z,15.13
2019-02-27T19:16:27.315Z,15.13
2019-02-27T19:19:48.218Z,14.77
2019-02-27T19:23:02.941Z,16.40
2019-02-27T19:26:19.806Z,15.80
2019-02-27T19:29:36.267Z,17.30
2019-02-27T19:32:58.321Z,16.13
2019-02-27T19:36:18.927Z,14.47
2019-02-27T19:39:29.987Z,13.60
2019-02-27T19:42:46.820Z,20.47
2019-02-27T19:46:06.905Z,19.77
2019-02-27T19:49:22.639Z,21.63
2019-02-27T19:52:39.159Z,21.43
2019-02-27T19:56:00.641Z,23.30
2019-02-27T19:59:14.704Z,21.10
2019-02-27T20:02:31.824Z,22.00
2019-02-27T20:05:50.554Z,23.07
2019-02-27T20:09:07.074Z,29.77
2019-02-27T20:12:24.360Z,21.33
2019-02-27T20:15:42.812Z,19.53
2019-02-27T20:18:57.880Z,19.30
2019-02-27T20:22:22.047Z,19.53
2019-02-27T20:25:43.123Z,16.97
2019-02-27T20:28:56.984Z,18.40
2019-02-27T20:32:12.235Z,20.73
2019-02-27T20:35:36.468Z,18.90
2019-02-27T20:38:53.005Z,16.70
2019-02-27T20:42:09.958Z,18.43
2019-02-27T20:45:26.821Z,20.80
2019-02-27T20:48:44.160Z,21.73
2019-02-27T20:52:00.943Z,24.60
2019-02-27T20:55:17.725Z,24.53
2019-02-27T20:58:34.407Z,26.33
2019-02-27T21:01:50.995Z,18.37
2019-02-27T21:05:09.513Z,22.00
2019-02-27T21:08:26.119Z,19.67
2019-02-27T21:11:42.811Z,18.63
2019-02-27T21:14:59.620Z,19.50
2019-02-27T21:18:16.075Z,20.43
2019-02-27T21:21:33.111Z,20.87
2019-02-27T21:24:49.652Z,21.80
2019-02-27T21:28:07.834Z,18.00
2019-02-27T21:31:27.618Z,23.50
2019-02-27T21:34:42.891Z,20.37
2019-02-27T21:37:59.688Z,23.70
2019-02-27T21:41:16.804Z,23.63
2019-02-27T21:44:33.467Z,22.70
2019-02-27T21:47:51.905Z,20.00
2019-02-27T21:51:11.002Z,23.90
2019-02-27T21:54:26.927Z,19.37
2019-02-27T21:57:43.508Z,22.80
2019-02-27T22:01:00.491Z,19.20
2019-02-27T22:04:16.914Z,20.10
2019-02-27T22:07:34.283Z,18.53
2019-02-27T22:10:53.550Z,18.23
2019-02-27T22:14:09.304Z,19.30
2019-02-27T22:17:25.857Z,21.37
2019-02-27T22:20:42.837Z,20.03
2019-02-27T22:23:59.493Z,17.80
2019-02-27T22:27:16.505Z,23.53
2019-02-27T22:30:33.651Z,17.17
2019-02-27T22:33:50.155Z,19.77
2019-02-27T22:37:07.230Z,16.97
2019-02-27T22:40:24.005Z,17.27
2019-02-27T22:43:39.255Z,16.60
2019-02-27T22:47:03.423Z,14.80
2019-02-27T22:50:20.059Z,19.53
2019-02-27T22:53:36.953Z,19.47
2019-02-27T22:56:53.516Z,22.40
2019-02-27T23:00:11.384Z,16.17
2019-02-27T23:03:28.763Z,14.67
2019-02-27T23:06:47.194Z,16.73
2019-02-27T23:10:03.774Z,17.70
2019-02-27T23:13:20.887Z,15.27
2019-02-27T23:16:37.340Z,13.23
2019-02-27T23:19:54.307Z,15.80
2019-02-27T23:23:10.831Z,14.97
2019-02-27T23:26:27.667Z,16.23
2019-02-27T23:29:44.219Z,15.23
2019-02-27T23:33:02.308Z,17.53
2019-02-27T23:36:21.873Z,15.00
2019-02-27T23:39:39.673Z,15.70
2019-02-27T23:43:02.229Z,16.90
2019-02-27T23:46:15.678Z,13.10
2019-02-27T23:49:33.758Z,14.80
2019-02-27T23:52:53.235Z,15.13
2019-02-27T23:56:08.838Z,16.10
2019-02-27T23:59:25.858Z,15.70
